createdAt,value
2019-05-02T00:01:46.800Z,30.40
2019-05-02T00:04:20.024Z,31.40
2019-05-02T00:07:03.817Z,31.20
2019-05-02T00:09:33.824Z,29.60
2019-05-02T00:12:05.051Z,33.40
2019-05-02T00:14:34.790Z,29.20
2019-05-02T00:17:04.583Z,31.00
2019-05-02T00:19:34.575Z,28.40
2019-05-02T00:22:04.789Z,29.40
2019-05-02T00:24:39.187Z,30.00
2019-05-02T00:27:05.982Z,30.20
2019-05-02T00:29:36.289Z,29.00
2019-05-02T00:32:06.055Z,29.60
2019-05-02T00:34:35.728Z,30.80
2019-05-02T00:37:06.048Z,31.40
2019-05-02T00:39:35.798Z,25.00
2019-05-02T00:42:12.465Z,27.00
2019-05-02T00:44:42.111Z,30.00
2019-05-02T00:47:20.015Z,31.40
2019-05-02T00:49:49.771Z,26.40
2019-05-02T00:52:19.466Z,24.40
2019-05-02T00:54:49.165Z,29.00
2019-05-02T00:57:19.890Z,27.40
2019-05-02T00:59:51.011Z,32.00
2019-05-02T01:02:26.875Z,29.60
2019-05-02T01:04:59.323Z,29.60
2019-05-02T01:07:28.286Z,27.40
2019-05-02T01:09:58.416Z,29.60
2019-05-02T01:12:28.406Z,25.80
2019-05-02T01:14:58.154Z,29.40
2019-05-02T01:17:30.860Z,24.80
2019-05-02T01:19:59.835Z,25.80
2019-05-02T01:22:29.799Z,27.60
2019-05-02T01:24:59.698Z,26.20
2019-05-02T01:27:48.721Z,28.80
2019-05-02T01:30:37.120Z,30.00
2019-05-02T01:33:17.527Z,24.60
2019-05-02T01:36:09.301Z,27.00
2019-05-02T01:38:43.021Z,30.00
2019-05-02T01:41:12.984Z,27.80
2019-05-02T01:43:42.836Z,28.20
2019-05-02T01:46:12.515Z,29.20
2019-05-02T01:48:45.755Z,22.60
2019-05-02T01:51:14.389Z,24.60
2019-05-02T01:53:44.175Z,23.60
2019-05-02T01:56:13.826Z,25.00
2019-05-02T01:58:43.402Z,25.80
2019-05-02T02:01:16.243Z,25.20
2019-05-02T02:03:45.712Z,24.20
2019-05-02T02:06:16.459Z,21.60
2019-05-02T02:08:46.053Z,25.80
2019-05-02T02:11:15.745Z,22.00
2019-05-02T02:13:45.527Z,26.20
2019-05-02T02:16:15.128Z,27.00
2019-05-02T02:19:03.947Z,27.00
2019-05-02T02:21:43.017Z,26.40
2019-05-02T02:24:25.214Z,27.80
2019-05-02T02:26:53.075Z,26.60
2019-05-02T02:29:22.827Z,21.80
2019-05-02T02:31:52.650Z,24.60
2019-05-02T02:34:29.292Z,17.60
2019-05-02T02:36:54.355Z,23.20
2019-05-02T02:39:23.966Z,27.60
2019-05-02T02:41:54.187Z,24.80
2019-05-02T02:44:49.262Z,22.40
2019-05-02T02:47:21.183Z,26.20
2019-05-02T02:49:55.782Z,28.20
2019-05-02T02:52:22.293Z,18.60
2019-05-02T02:54:52.133Z,27.20
2019-05-02T02:57:27.911Z,31.00
2019-05-02T02:59:59.640Z,23.80
2019-05-02T03:02:25.132Z,25.80
2019-05-02T03:04:54.942Z,24.80
2019-05-02T03:07:26.398Z,24.40
2019-05-02T03:09:59.564Z,22.60
2019-05-02T03:12:51.509Z,20.80
2019-05-02T03:15:28.037Z,26.20
2019-05-02T03:17:53.445Z,21.80
2019-05-02T03:20:23.118Z,24.40
2019-05-02T03:22:53.438Z,25.00
2019-05-02T03:25:25.064Z,17.60
2019-05-02T03:27:54.433Z,27.60
2019-05-02T03:30:32.283Z,23.60
2019-05-02T03:33:05.208Z,20.80
2019-05-02T03:35:41.784Z,23.60
2019-05-02T03:37:58.792Z,28.00
2019-05-02T03:40:32.307Z,23.00
2019-05-02T03:43:02.280Z,24.80
2019-05-02T03:45:39.624Z,22.80
2019-05-02T03:48:03.476Z,27.20
2019-05-02T03:50:35.356Z,25.60
2019-05-02T03:53:05.034Z,25.00
2019-05-02T03:55:35.169Z,30.20
2019-05-02T03:58:12.822Z,19.00
2019-05-02T04:00:36.533Z,21.00
2019-05-02T04:03:06.425Z,25.00
2019-05-02T04:05:40.263Z,14.40
2019-05-02T04:08:19.760Z,27.80
2019-05-02T04:11:21.951Z,27.60
2019-05-02T04:13:53.407Z,27.60
2019-05-02T04:16:23.917Z,22.60
2019-05-02T04:18:55.610Z,24.40
2019-05-02T04:21:26.531Z,26.20
2019-05-02T04:24:07.498Z,17.80
2019-05-02T04:26:28.971Z,27.00
2019-05-02T04:28:58.687Z,26.60
2019-05-02T04:31:31.549Z,18.80
2019-05-02T04:34:00.571Z,29.20
2019-05-02T04:36:30.428Z,16.80
2019-05-02T04:39:05.794Z,24.20
2019-05-02T04:41:34.418Z,25.00
2019-05-02T04:44:05.170Z,25.40
2019-05-02T04:46:34.762Z,24.80
2019-05-02T04:49:04.657Z,19.00
2019-05-02T04:51:34.473Z,21.80
2019-05-02T04:54:04.303Z,26.00
2019-05-02T04:59:17.877Z,33.20
2019-05-02T05:01:49.795Z,30.40
2019-05-02T05:04:17.935Z,28.00
2019-05-02T05:06:56.206Z,30.40
2019-05-02T05:09:19.147Z,22.60
2019-05-02T05:11:49.078Z,28.40
2019-05-02T05:14:19.176Z,24.40
2019-05-02T05:16:55.668Z,19.60
2019-05-02T05:19:31.014Z,26.60
2019-05-02T05:22:04.370Z,28.80
2019-05-02T05:24:42.165Z,24.80
2019-05-02T05:27:13.188Z,24.20
2019-05-02T05:29:42.320Z,29.60
2019-05-02T05:32:11.920Z,21.80
2019-05-02T05:34:41.643Z,26.80
2019-05-02T05:37:13.394Z,22.80
2019-05-02T05:39:43.090Z,23.20
2019-05-02T05:42:13.864Z,25.00
2019-05-02T05:44:44.270Z,27.80
2019-05-02T05:47:17.650Z,27.80
2019-05-02T05:49:47.617Z,28.20
2019-05-02T05:52:18.087Z,27.20
2019-05-02T05:54:48.204Z,32.00
2019-05-02T05:57:21.057Z,29.20
2019-05-02T05:59:49.228Z,26.20
2019-05-02T06:02:19.436Z,25.40
2019-05-02T06:04:50.184Z,29.60
2019-05-02T06:07:20.323Z,28.20
2019-05-02T06:09:49.942Z,24.40
2019-05-02T06:12:20.159Z,27.40
2019-05-02T06:14:56.265Z,27.80
2019-05-02T06:17:28.534Z,30.00
2019-05-02T06:19:55.469Z,28.00
2019-05-02T06:22:25.708Z,27.40
2019-05-02T06:24:55.551Z,28.20
2019-05-02T06:27:27.793Z,26.40
2019-05-02T06:29:57.327Z,28.00
2019-05-02T06:32:26.967Z,26.60
2019-05-02T06:34:56.673Z,16.00
2019-05-02T06:37:26.769Z,26.40
2019-05-02T06:39:57.129Z,23.80
2019-05-02T06:42:27.662Z,21.40
2019-05-02T06:44:59.737Z,18.60
2019-05-02T06:47:30.623Z,27.20
2019-05-02T06:50:02.570Z,18.60
2019-05-02T06:52:34.574Z,21.80
2019-05-02T06:55:04.375Z,21.60
2019-05-02T06:57:34.894Z,25.80
2019-05-02T07:00:06.620Z,24.40
2019-05-02T07:02:38.155Z,14.20
2019-05-02T07:05:08.274Z,24.20
2019-05-02T07:07:38.470Z,21.40
2019-05-02T07:10:08.948Z,27.60
2019-05-02T07:12:39.066Z,27.60
2019-05-02T07:15:14.246Z,27.60
2019-05-02T07:17:46.075Z,25.80
2019-05-02T07:20:19.251Z,28.40
2019-05-02T07:22:49.130Z,24.60
2019-05-02T07:25:19.006Z,22.60
2019-05-02T07:27:49.650Z,25.00
2019-05-02T07:30:20.995Z,24.00
2019-05-02T07:32:50.875Z,19.40
2019-05-02T07:35:24.573Z,18.80
2019-05-02T07:37:52.652Z,27.40
2019-05-02T07:40:22.474Z,29.20
2019-05-02T07:42:52.142Z,20.40
2019-05-02T07:45:23.560Z,21.60
2019-05-02T07:47:53.539Z,28.00
2019-05-02T07:50:25.912Z,27.40
2019-05-02T07:52:55.643Z,25.20
2019-05-02T07:55:25.344Z,23.20
2019-05-02T07:57:55.141Z,22.20
2019-05-02T08:00:44.226Z,24.60
2019-05-02T08:03:13.761Z,30.00
2019-05-02T08:05:43.483Z,24.80
2019-05-02T08:08:13.961Z,27.40
2019-05-02T08:10:43.635Z,22.40
2019-05-02T08:13:17.458Z,27.20
2019-05-02T08:15:45.582Z,30.20
2019-05-02T08:18:16.377Z,24.00
2019-05-02T08:20:50.991Z,30.00
2019-05-02T08:23:25.788Z,26.40
2019-05-02T08:25:52.436Z,23.20
2019-05-02T08:28:28.035Z,26.80
2019-05-02T08:30:58.538Z,25.80
2019-05-02T08:33:29.329Z,26.60
2019-05-02T08:36:00.007Z,21.20
2019-05-02T08:38:29.670Z,30.20
2019-05-02T08:40:59.741Z,30.20
2019-05-02T08:43:29.959Z,22.60
2019-05-02T08:46:09.544Z,32.00
2019-05-02T08:48:41.858Z,24.60
2019-05-02T08:51:09.249Z,29.20
2019-05-02T08:53:39.132Z,20.80
2019-05-02T08:56:08.984Z,27.80
2019-05-02T08:58:39.168Z,28.00
2019-05-02T09:01:13.251Z,28.00
2019-05-02T09:03:54.868Z,31.40
2019-05-02T09:06:11.665Z,28.40
2019-05-02T09:08:46.192Z,30.20
2019-05-02T09:11:15.637Z,30.60
2019-05-02T09:13:46.009Z,28.60
2019-05-02T09:16:15.374Z,33.60
2019-05-02T09:18:51.802Z,30.00
2019-05-02T09:21:19.607Z,30.80
2019-05-02T09:23:49.126Z,32.60
2019-05-02T09:26:33.304Z,30.40
2019-05-02T09:28:51.713Z,24.80
2019-05-02T09:31:22.672Z,29.60
2019-05-02T09:33:55.501Z,25.80
2019-05-02T09:36:23.879Z,28.60
2019-05-02T09:38:57.472Z,28.80
2019-05-02T09:41:26.941Z,28.60
2019-05-02T09:43:56.454Z,30.40
2019-05-02T09:46:26.594Z,31.20
2019-05-02T09:48:57.140Z,32.00
2019-05-02T09:51:27.311Z,31.80
2019-05-02T09:54:01.843Z,31.60
2019-05-02T09:56:28.415Z,29.60
2019-05-02T09:59:04.797Z,27.80
2019-05-02T10:01:38.825Z,29.60
2019-05-02T10:04:09.124Z,30.00
2019-05-02T10:06:39.154Z,30.00
2019-05-02T10:09:12.077Z,29.60
2019-05-02T10:11:41.942Z,30.00
2019-05-02T10:14:12.558Z,26.60
2019-05-02T10:16:42.664Z,31.00
2019-05-02T10:19:13.557Z,31.20
2019-05-02T10:21:46.848Z,33.40
2019-05-02T10:24:14.916Z,30.40
2019-05-02T10:26:44.914Z,30.00
2019-05-02T10:29:14.830Z,30.40
2019-05-02T10:31:44.742Z,30.00
2019-05-02T10:34:17.700Z,26.00
2019-05-02T10:36:45.781Z,29.80
2019-05-02T10:39:16.033Z,27.20
2019-05-02T10:41:47.660Z,22.40
2019-05-02T10:44:17.226Z,28.00
2019-05-02T10:46:56.940Z,30.80
2019-05-02T10:49:32.222Z,27.60
2019-05-02T10:52:02.746Z,24.80
2019-05-02T10:54:36.465Z,30.00
2019-05-02T10:57:03.907Z,31.60
2019-05-02T10:59:33.517Z,31.60
2019-05-02T11:02:22.599Z,26.20
2019-05-02T11:04:58.176Z,26.60
2019-05-02T11:07:27.933Z,30.40
2019-05-02T11:10:06.683Z,25.00
2019-05-02T11:12:47.148Z,23.80
2019-05-02T11:15:48.255Z,31.20
2019-05-02T11:18:22.185Z,24.00
2019-05-02T11:20:52.901Z,24.80
2019-05-02T11:25:44.476Z,25.00
2019-05-02T11:28:15.738Z,25.80
2019-05-02T11:30:46.291Z,28.40
2019-05-02T11:33:15.851Z,21.60
2019-05-02T11:35:49.032Z,27.20
2019-05-02T11:38:40.471Z,23.80
2019-05-02T11:40:51.950Z,27.00
2019-05-02T11:43:22.336Z,25.40
2019-05-02T11:45:55.873Z,27.00
2019-05-02T11:48:23.148Z,29.60
2019-05-02T11:50:57.922Z,23.20
2019-05-02T11:53:29.407Z,24.20
2019-05-02T11:55:58.361Z,21.40
2019-05-02T11:58:28.706Z,26.20
2019-05-02T12:00:58.260Z,26.80
2019-05-02T12:03:37.067Z,12.40
2019-05-02T12:06:14.053Z,23.60
2019-05-02T12:08:43.708Z,16.00
2019-05-02T12:11:13.958Z,24.40
2019-05-02T12:13:52.764Z,18.00
2019-05-02T12:16:23.206Z,24.00
2019-05-02T12:19:08.183Z,26.00
2019-05-02T12:21:26.506Z,19.60
2019-05-02T12:23:58.596Z,18.60
2019-05-02T12:26:28.234Z,30.40
2019-05-02T12:28:58.153Z,24.00
2019-05-02T12:31:32.390Z,25.40
2019-05-02T12:34:03.968Z,25.80
2019-05-02T12:36:35.484Z,23.60
2019-05-02T12:39:06.067Z,18.60
2019-05-02T12:41:35.762Z,20.60
2019-05-02T12:44:05.956Z,22.80
2019-05-02T12:46:35.591Z,24.40
2019-05-02T12:49:05.300Z,21.40
2019-05-02T12:51:35.095Z,23.60
2019-05-02T12:54:05.962Z,19.40
2019-05-02T12:56:35.710Z,22.60
2019-05-02T12:59:08.031Z,24.40
2019-05-02T13:01:37.736Z,25.80
2019-05-02T13:04:13.686Z,28.60
2019-05-02T13:06:43.617Z,25.00
2019-05-02T13:09:13.332Z,24.40
2019-05-02T13:11:59.385Z,21.40
2019-05-02T13:14:32.134Z,20.20
2019-05-02T13:17:05.541Z,17.20
2019-05-02T13:19:40.022Z,33.40
2019-05-02T13:22:22.404Z,16.00
2019-05-02T13:25:13.246Z,25.40
2019-05-02T13:28:01.808Z,24.60
2019-05-02T13:30:56.083Z,23.00
2019-05-02T13:33:35.798Z,23.80
2019-05-02T13:36:08.662Z,23.40
2019-05-02T13:38:36.045Z,19.20
2019-05-02T13:41:05.679Z,26.20
2019-05-02T13:43:43.451Z,21.60
2019-05-02T13:46:22.194Z,19.20
2019-05-02T13:48:52.774Z,21.00
2019-05-02T13:51:23.021Z,13.60
2019-05-02T13:53:59.286Z,22.60
2019-05-02T13:56:48.163Z,20.00
2019-05-02T13:59:22.274Z,25.80
2019-05-02T14:01:55.413Z,15.40
2019-05-02T14:04:25.460Z,20.60
2019-05-02T14:06:54.996Z,25.20
2019-05-02T14:09:39.531Z,14.40
2019-05-02T14:12:37.423Z,24.20
2019-05-02T14:15:07.515Z,24.00
2019-05-02T14:17:38.192Z,27.40
2019-05-02T14:20:11.091Z,30.00
2019-05-02T14:22:42.559Z,25.00
2019-05-02T14:25:12.693Z,27.20
2019-05-02T14:27:42.389Z,26.60
2019-05-02T14:30:14.205Z,29.20
2019-05-02T14:32:45.172Z,24.20
2019-05-02T14:35:28.135Z,27.60
2019-05-02T14:38:13.538Z,24.20
2019-05-02T14:41:14.137Z,23.00
2019-05-02T14:43:53.549Z,25.40
2019-05-02T14:46:35.525Z,26.20
2019-05-02T14:48:57.919Z,22.40
2019-05-02T14:51:28.248Z,25.40
2019-05-02T14:54:08.103Z,24.60
2019-05-02T14:56:52.861Z,22.00
2019-05-02T14:59:23.346Z,22.00
2019-05-02T15:01:57.737Z,23.80
2019-05-02T15:04:27.497Z,23.60
2019-05-02T15:06:57.396Z,24.60
2019-05-02T15:09:27.190Z,21.60
2019-05-02T15:12:02.434Z,24.80
2019-05-02T15:14:35.112Z,20.40
2019-05-02T15:17:37.739Z,16.40
2019-05-02T15:20:06.381Z,21.00
2019-05-02T15:22:38.083Z,18.40
2019-05-02T15:25:13.784Z,22.00
2019-05-02T15:27:45.299Z,25.20
2019-05-02T15:30:15.971Z,24.80
2019-05-02T15:32:57.048Z,26.60
2019-05-02T15:35:49.374Z,23.60
2019-05-02T15:38:27.242Z,13.20
2019-05-02T15:40:53.504Z,22.00
2019-05-02T15:43:22.232Z,22.80
2019-05-02T15:45:56.177Z,23.00
2019-05-02T15:48:27.682Z,25.00
2019-05-02T15:51:00.132Z,26.20
2019-05-02T15:53:39.169Z,27.20
2019-05-02T15:56:15.760Z,20.80
2019-05-02T15:58:42.598Z,24.20
2019-05-02T16:01:29.610Z,27.60
2019-05-02T16:04:01.767Z,30.20
2019-05-02T16:06:33.748Z,27.80
2019-05-02T16:09:02.603Z,27.40
2019-05-02T16:11:32.623Z,30.00
2019-05-02T16:14:02.305Z,28.60
2019-05-02T16:16:45.187Z,30.00
2019-05-02T16:19:22.648Z,32.60
2019-05-02T16:21:51.960Z,31.40
2019-05-02T16:24:24.876Z,29.60
2019-05-02T16:26:57.070Z,28.80
2019-05-02T16:29:28.806Z,26.20
2019-05-02T16:32:13.335Z,28.20
2019-05-02T16:34:57.772Z,29.60
2019-05-02T16:37:30.034Z,30.40
2019-05-02T16:40:00.039Z,32.60
2019-05-02T16:42:29.727Z,30.40
2019-05-02T16:45:02.406Z,32.80
2019-05-02T16:47:34.246Z,33.20
2019-05-02T16:50:03.980Z,31.40
2019-05-02T16:52:38.073Z,32.80
2019-05-02T16:55:05.681Z,30.20
2019-05-02T16:57:35.290Z,33.00
2019-05-02T17:00:06.576Z,35.60
2019-05-02T17:02:37.967Z,32.20
2019-05-02T17:05:12.088Z,26.60
2019-05-02T17:08:10.570Z,27.60
2019-05-02T17:10:57.139Z,6.00
2019-05-02T17:13:31.694Z,10.00
2019-05-02T17:15:59.255Z,4.40
2019-05-02T17:18:29.128Z,9.40
2019-05-02T17:20:59.418Z,10.00
2019-05-02T17:23:29.729Z,11.20
2019-05-02T17:26:01.479Z,13.00
2019-05-02T17:28:31.872Z,11.80
2019-05-02T17:31:02.079Z,12.20
2019-05-02T17:33:32.387Z,9.00
2019-05-02T17:36:05.268Z,10.00
2019-05-02T17:38:35.019Z,10.40
2019-05-02T17:41:07.972Z,9.60
2019-05-02T17:43:41.907Z,7.40
2019-05-02T17:46:12.559Z,7.00
2019-05-02T17:48:40.312Z,4.80
2019-05-02T17:51:35.708Z,7.60
2019-05-02T17:54:02.884Z,3.00
2019-05-02T17:56:32.895Z,5.60
2019-05-02T17:59:06.162Z,3.40
2019-05-02T18:01:39.302Z,7.40
2019-05-02T18:04:12.594Z,7.00
2019-05-02T18:06:41.711Z,7.00
2019-05-02T18:09:12.267Z,7.40
2019-05-02T18:11:42.430Z,4.80
2019-05-02T18:14:19.639Z,9.00
2019-05-02T18:16:47.035Z,9.00
2019-05-02T18:19:15.981Z,10.80
2019-05-02T18:21:46.241Z,8.00
2019-05-02T18:24:16.552Z,10.80
2019-05-02T18:26:46.649Z,7.00
2019-05-02T18:29:17.141Z,11.60
2019-05-02T18:31:49.199Z,10.40
2019-05-02T18:34:21.006Z,9.80
2019-05-02T18:36:52.310Z,8.20
2019-05-02T18:39:24.030Z,11.20
2019-05-02T18:41:55.121Z,15.00
2019-05-02T18:44:28.130Z,8.60
2019-05-02T18:46:59.159Z,6.80
2019-05-02T18:49:29.444Z,10.00
2019-05-02T18:52:01.780Z,6.80
2019-05-02T18:54:31.128Z,11.80
2019-05-02T18:57:02.408Z,11.60
2019-05-02T18:59:32.753Z,11.80
2019-05-02T19:02:02.587Z,14.00
2019-05-02T19:04:38.132Z,9.80
2019-05-02T19:07:07.578Z,12.40
2019-05-02T19:09:47.872Z,7.80
2019-05-02T19:12:19.454Z,12.00
2019-05-02T19:14:42.015Z,13.20
2019-05-02T19:17:12.248Z,14.80
2019-05-02T19:19:45.558Z,16.00
2019-05-02T19:22:17.645Z,15.00
2019-05-02T19:24:52.398Z,16.00
2019-05-02T19:27:42.906Z,17.20
2019-05-02T19:30:13.380Z,15.20
2019-05-02T19:32:43.394Z,16.40
2019-05-02T19:35:13.245Z,19.60
2019-05-02T19:37:47.562Z,22.00
2019-05-02T19:40:20.153Z,15.00
2019-05-02T19:42:52.689Z,21.20
2019-05-02T19:45:26.051Z,22.00
2019-05-02T19:48:02.781Z,21.20
2019-05-02T19:50:43.756Z,21.00
2019-05-02T19:53:18.170Z,19.40
2019-05-02T19:55:43.076Z,24.00
2019-05-02T19:58:13.978Z,24.60
2019-05-02T20:00:46.256Z,24.40
2019-05-02T20:03:21.690Z,25.60
2019-05-02T20:05:48.503Z,22.40
2019-05-02T20:08:21.329Z,25.40
2019-05-02T20:10:56.870Z,15.80
2019-05-02T20:13:28.008Z,24.60
2019-05-02T20:16:05.821Z,23.60
2019-05-02T20:18:42.553Z,24.20
2019-05-02T20:21:23.384Z,28.40
2019-05-02T20:23:49.052Z,27.20
2019-05-02T20:26:19.456Z,26.00
2019-05-02T20:28:49.494Z,18.80
2019-05-02T20:31:21.561Z,27.60
2019-05-02T20:33:52.990Z,29.20
2019-05-02T20:36:24.061Z,22.40
2019-05-02T20:38:53.865Z,18.80
2019-05-02T20:41:25.255Z,22.20
2019-05-02T20:43:55.853Z,24.80
2019-05-02T20:46:30.105Z,17.80
2019-05-02T20:49:01.873Z,27.80
2019-05-02T20:51:31.921Z,26.60
2019-05-02T20:54:02.355Z,23.00
2019-05-02T20:56:33.133Z,18.20
2019-05-02T20:59:03.669Z,20.20
2019-05-02T21:01:33.518Z,25.80
2019-05-02T21:04:03.432Z,25.40
2019-05-02T21:06:52.604Z,23.40
2019-05-02T21:09:41.706Z,23.20
2019-05-02T21:12:13.976Z,25.40
2019-05-02T21:14:43.671Z,22.00
2019-05-02T21:17:13.400Z,22.60
2019-05-02T21:19:43.386Z,17.60
2019-05-02T21:22:18.077Z,25.40
2019-05-02T21:24:47.856Z,19.80
2019-05-02T21:27:17.647Z,25.20
2019-05-02T21:29:47.947Z,24.40
2019-05-02T21:32:18.110Z,20.00
2019-05-02T21:34:48.272Z,18.60
2019-05-02T21:37:18.152Z,18.20
2019-05-02T21:39:48.363Z,20.60
2019-05-02T21:42:18.258Z,8.60
2019-05-02T21:44:48.135Z,6.20
2019-05-02T21:47:17.867Z,11.20
2019-05-02T21:50:12.519Z,6.20
2019-05-02T21:53:04.728Z,12.00
2019-05-02T21:55:43.117Z,5.20
2019-05-02T21:58:13.125Z,9.20
2019-05-02T22:01:06.707Z,4.00
2019-05-02T22:03:36.532Z,7.00
2019-05-02T22:06:07.137Z,7.40
2019-05-02T22:08:37.267Z,8.00
2019-05-02T22:11:06.886Z,12.00
2019-05-02T22:13:36.700Z,9.80
2019-05-02T22:16:06.283Z,9.80
2019-05-02T22:18:36.113Z,6.20
2019-05-02T22:21:06.385Z,9.80
2019-05-02T22:23:37.355Z,11.60
2019-05-02T22:26:07.224Z,4.00
2019-05-02T22:28:36.979Z,7.00
2019-05-02T22:31:06.408Z,9.60
2019-05-02T22:33:38.964Z,12.60
2019-05-02T22:36:08.954Z,10.80
2019-05-02T22:39:02.092Z,8.60
2019-05-02T22:41:32.596Z,8.20
2019-05-02T22:44:05.757Z,4.00
2019-05-02T22:46:43.311Z,10.40
2019-05-02T22:49:15.252Z,7.40
2019-05-02T22:51:45.325Z,10.80
2019-05-02T22:54:26.846Z,7.40
2019-05-02T22:56:48.483Z,9.80
2019-05-02T22:59:18.085Z,4.00
2019-05-02T23:01:48.636Z,9.20
2019-05-02T23:04:18.267Z,9.00
2019-05-02T23:06:52.882Z,10.00
2019-05-02T23:09:22.246Z,9.60
2019-05-02T23:11:52.736Z,4.00
2019-05-02T23:14:22.840Z,9.00
2019-05-02T23:16:52.963Z,9.20
2019-05-02T23:19:23.218Z,9.40
2019-05-02T23:21:53.299Z,6.20
2019-05-02T23:24:38.993Z,9.20
2019-05-02T23:27:22.433Z,8.00
2019-05-02T23:29:52.195Z,7.00
2019-05-02T23:32:23.830Z,10.00
2019-05-02T23:34:54.803Z,6.60
2019-05-02T23:37:24.318Z,4.40
2019-05-02T23:39:53.804Z,8.60
2019-05-02T23:42:23.825Z,8.40
2019-05-02T23:44:53.410Z,9.80
2019-05-02T23:47:24.984Z,9.80
2019-05-02T23:49:54.480Z,12.80
2019-05-02T23:52:25.079Z,4.80
2019-05-02T23:54:54.637Z,9.40
2019-05-02T23:57:26.387Z,9.00
2019-05-02T23:59:57.635Z,13.00
